Time;durP1;ratioP1;P1;durP2;ratioP2;P2;SDS_P1;SDS_P2;PMS_P1;PMS_P2;Temp;Humidity;BMP_temperature;BMP_pressure;BME280_temperature;BME280_humidity;BME280_pressure;Samples;Min_cycle;Max_cycle;Signal;HPM_P1;HPM_P2
2024/02/24 00:00:27;;;;;;;3.17;1.42;;;6.90;99.90;;;;;;5009818;28;20061;-77
2024/02/24 00:02:52;;;;;;;4.07;1.45;;;6.90;99.90;;;;;;5014857;28;20029;-77
2024/02/24 00:05:19;;;;;;;2.03;1.38;;;6.90;99.90;;;;;;5013048;28;20033;-77
2024/02/24 00:07:45;;;;;;;1.70;1.20;;;6.90;99.90;;;;;;5014732;28;20030;-77
2024/02/24 00:10:11;;;;;;;2.13;1.30;;;6.90;99.90;;;;;;5015787;28;20047;-77
2024/02/24 00:12:37;;;;;;;3.08;1.13;;;6.80;99.90;;;;;;5015465;28;20053;-77
2024/02/24 00:15:03;;;;;;;2.30;1.30;;;6.80;99.90;;;;;;5018247;28;20579;-77
2024/02/24 00:17:29;;;;;;;8.05;1.40;;;6.80;99.90;;;;;;5023465;28;20029;-78
2024/02/24 00:19:55;;;;;;;1.20;1.00;;;6.80;99.90;;;;;;5017331;28;20034;-77
2024/02/24 00:22:20;;;;;;;2.08;1.30;;;6.80;99.90;;;;;;5014361;28;20029;-77
2024/02/24 00:24:46;;;;;;;2.30;1.20;;;6.80;99.90;;;;;;5012584;28;20041;-77
2024/02/24 00:27:12;;;;;;;1.80;1.15;;;6.80;99.90;;;;;;5016442;28;20405;-77
2024/02/24 00:29:38;;;;;;;2.80;1.10;;;6.80;99.90;;;;;;5011973;28;20385;-76
2024/02/24 00:32:04;;;;;;;2.22;0.95;;;6.80;99.90;;;;;;5015019;28;20543;-76
2024/02/24 00:34:30;;;;;;;5.15;1.25;;;6.80;99.90;;;;;;5014821;28;20022;-77
2024/02/24 00:36:56;;;;;;;3.47;1.30;;;6.70;99.90;;;;;;4997322;28;20029;-77
2024/02/24 00:39:22;;;;;;;2.03;1.20;;;6.70;99.90;;;;;;5016751;28;20519;-77
2024/02/24 00:41:50;;;;;;;2.90;1.63;;;6.70;99.90;;;;;;5014488;28;20096;-77
2024/02/24 00:44:16;;;;;;;3.28;1.40;;;6.70;99.90;;;;;;5016700;28;20116;-77
2024/02/24 00:46:42;;;;;;;3.85;1.42;;;6.70;99.90;;;;;;5013275;28;20123;-77
2024/02/24 00:49:08;;;;;;;1.40;1.05;;;6.70;99.90;;;;;;5010966;28;20109;-78
2024/02/24 00:51:34;;;;;;;5.30;1.40;;;6.70;99.90;;;;;;5013663;28;20026;-77
2024/02/24 00:54:00;;;;;;;3.35;1.17;;;6.70;99.90;;;;;;5014162;28;20033;-77
2024/02/24 00:56:25;;;;;;;3.10;1.67;;;6.70;99.90;;;;;;5030417;28;20063;-77
2024/02/24 00:58:51;;;;;;;3.25;1.20;;;6.70;99.90;;;;;;5014327;28;20032;-77
2024/02/24 01:01:17;;;;;;;3.78;1.38;;;6.60;99.90;;;;;;5020828;28;20033;-77
2024/02/24 01:03:43;;;;;;;4.57;1.50;;;6.60;99.90;;;;;;5012804;28;20044;-77
2024/02/24 01:06:09;;;;;;;2.53;1.40;;;6.60;99.90;;;;;;5013660;28;20037;-77
2024/02/24 01:08:35;;;;;;;1.63;1.20;;;6.50;99.90;;;;;;5014356;28;20038;-77
2024/02/24 01:11:00;;;;;;;2.80;1.38;;;6.50;99.90;;;;;;5019103;28;20168;-77
2024/02/24 01:13:26;;;;;;;4.47;1.77;;;6.50;99.90;;;;;;5018235;28;20029;-76
2024/02/24 01:15:52;;;;;;;1.42;1.23;;;6.50;99.90;;;;;;5009361;28;20545;-77
2024/02/24 01:18:20;;;;;;;1.42;1.10;;;6.50;99.90;;;;;;5010751;28;20056;-75
2024/02/24 01:20:48;;;;;;;2.22;1.23;;;6.50;99.90;;;;;;5010620;28;20038;-75
2024/02/24 01:23:16;;;;;;;4.43;1.63;;;6.50;99.90;;;;;;5011968;28;20125;-75
2024/02/24 01:25:45;;;;;;;2.95;1.40;;;6.50;99.90;;;;;;5011895;28;20038;-74
2024/02/24 01:28:11;;;;;;;4.85;1.40;;;6.50;99.90;;;;;;5019674;28;20041;-74
2024/02/24 01:30:36;;;;;;;1.98;1.10;;;6.50;99.90;;;;;;5016169;28;20032;-75
2024/02/24 01:33:06;;;;;;;2.45;1.45;;;6.40;99.90;;;;;;5017448;28;20769;-75
2024/02/24 01:35:33;;;;;;;2.58;1.10;;;6.40;99.90;;;;;;5016573;28;20032;-74
2024/02/24 01:37:59;;;;;;;2.30;1.00;;;6.50;99.90;;;;;;5013774;28;20065;-74
2024/02/24 01:40:24;;;;;;;4.10;2.10;;;6.50;99.90;;;;;;5012824;28;20112;-75
2024/02/24 01:42:53;;;;;;;2.60;1.10;;;6.40;99.90;;;;;;5020420;28;20160;-75
2024/02/24 01:45:19;;;;;;;2.10;1.27;;;6.50;99.90;;;;;;5020387;28;20124;-74
2024/02/24 01:47:45;;;;;;;1.85;1.35;;;6.50;99.90;;;;;;5019984;28;20584;-75
2024/02/24 01:50:12;;;;;;;4.57;1.50;;;6.50;99.90;;;;;;5016655;28;20110;-74
2024/02/24 01:52:40;;;;;;;3.97;1.25;;;6.50;99.90;;;;;;5015799;28;20030;-74
2024/02/24 01:55:07;;;;;;;3.63;1.05;;;6.40;99.90;;;;;;5017451;28;20037;-74
2024/02/24 01:57:45;;;;;;;2.13;1.20;;;6.40;99.90;;;;;;5012131;28;20029;-75
2024/02/24 02:00:12;;;;;;;4.35;1.42;;;6.40;99.90;;;;;;5015150;28;20072;-75
2024/02/24 02:02:46;;;;;;;2.40;1.45;;;6.40;99.90;;;;;;5012602;28;20034;-75
2024/02/24 02:05:13;;;;;;;3.65;1.40;;;6.40;99.90;;;;;;5013475;28;20033;-74
2024/02/24 02:07:39;;;;;;;2.38;1.52;;;6.40;99.90;;;;;;5018780;28;20022;-75
2024/02/24 02:10:05;;;;;;;4.07;1.20;;;6.40;99.90;;;;;;5016503;28;20025;-75
2024/02/24 02:12:34;;;;;;;2.25;1.17;;;6.40;99.90;;;;;;5014219;28;20036;-75
2024/02/24 02:15:00;;;;;;;4.05;1.45;;;6.30;99.90;;;;;;5015140;28;20120;-74
2024/02/24 02:17:26;;;;;;;3.65;1.58;;;6.40;99.90;;;;;;5013011;28;20711;-74
2024/02/24 02:19:52;;;;;;;4.78;1.42;;;6.30;99.90;;;;;;5010583;28;20044;-74
2024/02/24 02:22:18;;;;;;;2.40;1.33;;;6.30;99.90;;;;;;5014499;28;20049;-74
2024/02/24 02:24:44;;;;;;;3.75;1.42;;;6.30;99.90;;;;;;5011260;28;20066;-73
2024/02/24 02:27:11;;;;;;;3.28;1.55;;;6.30;99.90;;;;;;5011441;28;20037;-74
2024/02/24 02:29:37;;;;;;;2.22;1.35;;;6.20;99.90;;;;;;5014505;28;20664;-73
2024/02/24 02:32:03;;;;;;;4.25;1.33;;;6.20;99.90;;;;;;5015450;28;20029;-73
2024/02/24 02:34:28;;;;;;;3.28;1.40;;;6.20;99.90;;;;;;5014799;28;20030;-74
2024/02/24 02:36:54;;;;;;;2.95;1.17;;;6.20;99.90;;;;;;5014694;28;20072;-73
2024/02/24 02:39:20;;;;;;;4.55;1.38;;;6.20;99.90;;;;;;5014323;28;20069;-73
2024/02/24 02:41:46;;;;;;;3.05;1.50;;;6.10;99.90;;;;;;5015617;28;20107;-73
2024/02/24 02:44:13;;;;;;;2.58;1.23;;;6.10;99.90;;;;;;5018966;28;20037;-73
2024/02/24 02:46:44;;;;;;;1.20;1.00;;;6.10;99.90;;;;;;5016141;28;20057;-73
2024/02/24 02:49:10;;;;;;;5.07;1.55;;;6.10;99.90;;;;;;5009362;28;20154;-73
2024/02/24 02:51:36;;;;;;;4.80;1.55;;;6.00;99.90;;;;;;5018783;28;20037;-73
2024/02/24 02:54:02;;;;;;;3.25;1.40;;;6.00;99.90;;;;;;5011173;28;20037;-73
2024/02/24 02:56:27;;;;;;;4.13;1.60;;;6.00;99.90;;;;;;5014745;28;20428;-73
2024/02/24 02:58:53;;;;;;;2.10;1.33;;;5.90;99.90;;;;;;5015313;28;20027;-74
2024/02/24 03:01:19;;;;;;;3.30;1.15;;;5.90;99.90;;;;;;5019218;28;20091;-73
2024/02/24 03:03:45;;;;;;;2.47;1.10;;;5.90;99.90;;;;;;5020141;28;20484;-73
2024/02/24 03:06:11;;;;;;;6.45;1.70;;;5.90;99.90;;;;;;5015554;28;20609;-73
2024/02/24 03:08:36;;;;;;;4.38;1.15;;;5.80;99.90;;;;;;5012998;28;20117;-74
2024/02/24 03:11:03;;;;;;;2.47;1.33;;;5.70;99.90;;;;;;5019626;28;20091;-74
2024/02/24 03:13:29;;;;;;;3.38;1.30;;;5.70;99.90;;;;;;5018958;28;20034;-73
2024/02/24 03:15:55;;;;;;;2.38;1.23;;;5.70;99.90;;;;;;5014830;28;20105;-73
2024/02/24 03:18:23;;;;;;;3.67;1.40;;;5.60;99.90;;;;;;5015599;28;20088;-74
2024/02/24 03:20:49;;;;;;;3.30;1.42;;;5.60;99.90;;;;;;5016972;28;20041;-73
2024/02/24 03:23:15;;;;;;;4.38;1.30;;;5.60;99.90;;;;;;5015656;28;20067;-73
2024/02/24 03:25:41;;;;;;;2.45;1.20;;;5.60;99.90;;;;;;5016758;28;20014;-73
2024/02/24 03:28:07;;;;;;;1.92;1.50;;;5.60;99.90;;;;;;5016693;28;20109;-73
2024/02/24 03:30:32;;;;;;;3.05;1.35;;;5.50;99.90;;;;;;5011125;28;20076;-73
2024/02/24 03:32:58;;;;;;;1.60;1.33;;;5.50;99.90;;;;;;5017906;28;20107;-73
2024/02/24 03:35:24;;;;;;;1.65;1.40;;;5.40;99.90;;;;;;5011253;28;20109;-74
2024/02/24 03:37:53;;;;;;;2.47;1.45;;;5.50;99.90;;;;;;5015629;28;20402;-73
2024/02/24 03:40:19;;;;;;;2.55;1.60;;;5.40;99.90;;;;;;5011694;28;20038;-73
2024/02/24 03:42:44;;;;;;;5.65;1.65;;;5.40;99.90;;;;;;5011905;28;20091;-73
2024/02/24 03:45:10;;;;;;;2.35;1.52;;;5.40;99.90;;;;;;5015524;28;20029;-74
2024/02/24 03:47:36;;;;;;;4.18;1.67;;;5.40;99.90;;;;;;5013561;28;20025;-74
2024/02/24 03:50:02;;;;;;;3.70;1.50;;;5.40;99.90;;;;;;5014290;28;20073;-74
2024/02/24 03:52:28;;;;;;;5.65;1.63;;;5.40;99.90;;;;;;5012861;28;20405;-74
2024/02/24 03:54:54;;;;;;;3.20;1.60;;;5.40;99.90;;;;;;5011312;28;20056;-73
2024/02/24 03:57:19;;;;;;;3.08;1.60;;;5.30;99.90;;;;;;5015365;28;20037;-73
2024/02/24 03:59:45;;;;;;;4.60;1.52;;;5.20;99.90;;;;;;5019925;28;20104;-73
2024/02/24 04:02:11;;;;;;;4.40;1.50;;;5.20;99.90;;;;;;5011685;28;20033;-73
2024/02/24 04:04:37;;;;;;;7.95;1.80;;;5.20;99.90;;;;;;5011463;28;20480;-73
2024/02/24 04:07:03;;;;;;;4.90;1.50;;;5.10;99.90;;;;;;5028134;28;20041;-73
2024/02/24 04:09:29;;;;;;;3.85;1.65;;;5.10;99.90;;;;;;5016189;28;20033;-73
2024/02/24 04:11:55;;;;;;;3.85;1.88;;;5.10;99.90;;;;;;5013255;28;20496;-74
2024/02/24 04:14:21;;;;;;;5.43;1.98;;;5.10;99.90;;;;;;5025444;28;20409;-73
2024/02/24 04:16:47;;;;;;;1.77;1.48;;;5.10;99.90;;;;;;5003056;28;20975;-74
2024/02/24 04:19:12;;;;;;;3.33;1.90;;;5.00;99.90;;;;;;5010864;28;20045;-73
2024/02/24 04:21:38;;;;;;;5.00;1.70;;;4.90;99.90;;;;;;5012015;28;20080;-74
2024/02/24 04:24:05;;;;;;;1.98;1.25;;;4.90;99.90;;;;;;5006841;28;20308;-74
2024/02/24 04:26:31;;;;;;;3.50;1.75;;;4.90;99.90;;;;;;5007218;28;20473;-73
2024/02/24 04:28:57;;;;;;;2.17;1.60;;;4.90;99.90;;;;;;5012944;28;20101;-74
2024/02/24 04:31:23;;;;;;;4.90;1.75;;;4.90;99.90;;;;;;5011768;28;20523;-74
2024/02/24 04:33:48;;;;;;;2.55;1.35;;;4.90;99.90;;;;;;5010626;28;20040;-73
2024/02/24 04:36:14;;;;;;;4.10;1.98;;;4.80;99.90;;;;;;5013739;28;20033;-73
2024/02/24 04:38:40;;;;;;;2.28;1.65;;;4.80;99.90;;;;;;5013111;28;20564;-73
2024/02/24 04:41:06;;;;;;;7.60;2.22;;;4.80;99.90;;;;;;5012251;28;20555;-73
2024/02/24 04:43:32;;;;;;;4.13;2.00;;;4.80;99.90;;;;;;5013431;28;20038;-74
2024/02/24 04:45:58;;;;;;;4.25;1.58;;;4.80;99.90;;;;;;5009817;28;20022;-74
2024/02/24 04:48:23;;;;;;;3.45;2.00;;;4.70;99.90;;;;;;5020090;28;20821;-74
2024/02/24 04:50:49;;;;;;;4.57;2.20;;;4.70;99.90;;;;;;5016264;28;20038;-73
2024/02/24 04:53:15;;;;;;;2.90;1.77;;;4.70;99.90;;;;;;5016227;28;20041;-73
2024/02/24 04:55:41;;;;;;;4.80;1.90;;;4.70;99.90;;;;;;5016716;28;20040;-73
2024/02/24 04:58:07;;;;;;;2.58;1.88;;;4.80;99.90;;;;;;5014126;28;20393;-73
2024/02/24 05:00:33;;;;;;;2.88;1.95;;;4.80;99.90;;;;;;5016809;28;20465;-74
2024/02/24 05:02:59;;;;;;;2.92;2.00;;;4.80;99.90;;;;;;5015248;28;20033;-74
2024/02/24 05:05:24;;;;;;;6.25;2.30;;;4.80;99.90;;;;;;5015022;28;20401;-74
2024/02/24 05:07:51;;;;;;;5.55;1.98;;;4.70;99.90;;;;;;5016972;28;20036;-74
2024/02/24 05:10:17;;;;;;;2.63;2.08;;;4.70;99.90;;;;;;5017301;28;20053;-73
2024/02/24 05:12:47;;;;;;;3.08;1.90;;;4.70;99.90;;;;;;5017392;28;20116;-74
2024/02/24 05:15:18;;;;;;;3.60;2.40;;;4.70;99.90;;;;;;5017081;28;20441;-74
2024/02/24 05:17:44;;;;;;;5.63;2.42;;;4.70;99.90;;;;;;5014766;28;20075;-74
2024/02/24 05:20:14;;;;;;;3.25;2.00;;;4.70;99.90;;;;;;5014999;28;20037;-74
2024/02/24 05:22:40;;;;;;;3.05;2.13;;;4.60;99.90;;;;;;5031617;28;20515;-74
2024/02/24 05:25:08;;;;;;;4.55;2.10;;;4.60;99.90;;;;;;5023150;28;20033;-74
2024/02/24 05:27:34;;;;;;;4.13;2.03;;;4.50;99.90;;;;;;5018763;28;20030;-74
2024/02/24 05:30:00;;;;;;;4.82;1.77;;;4.50;99.90;;;;;;5016678;28;20042;-74
2024/02/24 05:32:26;;;;;;;4.05;2.03;;;4.50;99.90;;;;;;5018378;28;20040;-74
2024/02/24 05:34:52;;;;;;;3.17;2.10;;;4.50;99.90;;;;;;5018208;28;21104;-73
2024/02/24 05:37:18;;;;;;;5.65;2.22;;;4.50;99.90;;;;;;5020242;28;20045;-74
2024/02/24 05:39:45;;;;;;;3.97;2.10;;;4.50;99.90;;;;;;5015546;28;20112;-74
2024/02/24 05:42:12;;;;;;;4.38;1.83;;;4.40;99.90;;;;;;5015246;28;20030;-74
2024/02/24 05:44:38;;;;;;;2.78;2.17;;;4.40;99.90;;;;;;5014987;28;20052;-74
2024/02/24 05:47:04;;;;;;;3.20;2.00;;;4.50;99.90;;;;;;5013772;28;20033;-74
2024/02/24 05:49:30;;;;;;;4.93;2.40;;;4.50;99.90;;;;;;5018604;28;20569;-74
2024/02/24 05:51:56;;;;;;;4.18;1.98;;;4.40;99.90;;;;;;5014832;28;20099;-74
2024/02/24 05:54:23;;;;;;;2.53;1.80;;;4.40;99.90;;;;;;5014488;28;20859;-74
2024/02/24 05:56:49;;;;;;;3.47;1.98;;;4.40;99.90;;;;;;5015474;28;20034;-74
2024/02/24 05:59:15;;;;;;;4.95;2.58;;;4.40;99.90;;;;;;5014028;28;20060;-73
2024/02/24 06:01:41;;;;;;;7.00;2.28;;;4.40;99.90;;;;;;5018226;28;20037;-73
2024/02/24 06:04:07;;;;;;;4.30;2.65;;;4.30;99.90;;;;;;5014352;28;20037;-73
2024/02/24 06:06:33;;;;;;;5.80;2.67;;;4.30;99.90;;;;;;5014172;28;20043;-73
2024/02/24 06:08:58;;;;;;;4.57;2.30;;;4.30;99.90;;;;;;5015347;28;20721;-73
2024/02/24 06:11:24;;;;;;;6.82;2.13;;;4.40;99.90;;;;;;5014214;28;20468;-73
2024/02/24 06:13:52;;;;;;;5.63;2.40;;;4.40;99.90;;;;;;4997488;28;20401;-73
2024/02/24 06:16:18;;;;;;;4.65;2.30;;;4.40;99.90;;;;;;5020909;28;20120;-73
2024/02/24 06:18:44;;;;;;;3.10;2.10;;;4.30;99.90;;;;;;5017883;28;20026;-73
2024/02/24 06:21:10;;;;;;;4.50;2.47;;;4.30;99.90;;;;;;5031348;28;20475;-73
2024/02/24 06:23:36;;;;;;;6.70;2.30;;;4.30;99.90;;;;;;5015554;28;20583;-73
2024/02/24 06:26:02;;;;;;;3.58;1.90;;;4.30;99.90;;;;;;5017119;28;20037;-73
2024/02/24 06:28:28;;;;;;;4.95;1.98;;;4.30;99.90;;;;;;5016359;28;20036;-74
2024/02/24 06:30:53;;;;;;;5.53;2.58;;;4.30;99.90;;;;;;5010330;28;20087;-73
2024/02/24 06:33:19;;;;;;;3.00;1.75;;;4.30;99.90;;;;;;5013338;28;20543;-73
2024/02/24 06:35:45;;;;;;;4.72;2.05;;;4.30;99.90;;;;;;5014775;28;20538;-73
2024/02/24 06:38:11;;;;;;;3.97;2.00;;;4.30;99.90;;;;;;5012502;28;20505;-73
2024/02/24 06:40:37;;;;;;;2.50;2.08;;;4.30;99.90;;;;;;5011380;28;20057;-73
2024/02/24 06:43:03;;;;;;;3.42;2.33;;;4.30;99.90;;;;;;5010542;28;20037;-74
2024/02/24 06:45:29;;;;;;;7.38;2.40;;;4.30;99.90;;;;;;5013771;28;20099;-73
2024/02/24 06:47:54;;;;;;;3.67;1.95;;;4.30;99.90;;;;;;5013583;28;20099;-73
2024/02/24 06:50:20;;;;;;;5.97;2.00;;;4.30;99.90;;;;;;5014162;28;20029;-73
2024/02/24 06:52:46;;;;;;;5.00;2.05;;;4.30;99.90;;;;;;5018100;28;20025;-73
2024/02/24 06:55:12;;;;;;;2.30;1.83;;;4.40;99.90;;;;;;5018804;28;20128;-73
2024/02/24 06:57:38;;;;;;;5.53;2.50;;;4.40;99.90;;;;;;5014253;28;20043;-73
2024/02/24 07:00:05;;;;;;;2.55;1.92;;;4.50;99.90;;;;;;5017129;28;20033;-72
2024/02/24 07:02:31;;;;;;;3.75;1.70;;;4.50;99.90;;;;;;5013195;28;20021;-74
2024/02/24 07:04:56;;;;;;;3.53;2.20;;;4.60;99.90;;;;;;5013663;28;20079;-74
2024/02/24 07:07:23;;;;;;;3.10;1.98;;;4.70;99.90;;;;;;5029085;28;21033;-73
2024/02/24 07:09:48;;;;;;;6.47;2.20;;;4.70;99.90;;;;;;5015156;28;20636;-74
2024/02/24 07:12:14;;;;;;;6.43;2.55;;;4.80;99.90;;;;;;5017696;28;20029;-73
2024/02/24 07:14:40;;;;;;;3.58;2.17;;;4.90;99.90;;;;;;5009470;28;20496;-72
2024/02/24 07:17:06;;;;;;;2.83;1.98;;;5.00;99.90;;;;;;4994995;28;20026;-73
2024/02/24 07:19:32;;;;;;;3.35;2.13;;;5.00;99.90;;;;;;5013158;28;20029;-73
2024/02/24 07:21:58;;;;;;;3.42;2.13;;;5.10;99.90;;;;;;5013754;28;20041;-73
2024/02/24 07:24:24;;;;;;;7.57;2.40;;;5.20;99.90;;;;;;5018360;28;20033;-78
2024/02/24 07:26:50;;;;;;;3.90;2.47;;;5.30;99.90;;;;;;5017769;28;20108;-75
2024/02/24 07:29:15;;;;;;;5.57;2.30;;;5.40;99.90;;;;;;4978853;28;20044;-75
2024/02/24 07:31:41;;;;;;;6.90;2.38;;;5.40;99.90;;;;;;5012484;28;20492;-74
2024/02/24 07:34:07;;;;;;;5.88;2.35;;;5.40;99.90;;;;;;5014010;28;20044;-70
2024/02/24 07:36:33;;;;;;;3.50;2.30;;;5.60;99.90;;;;;;5010419;28;20034;-74
2024/02/24 07:38:59;;;;;;;4.43;2.40;;;5.70;99.90;;;;;;5016670;28;20033;-72
2024/02/24 07:41:25;;;;;;;5.95;2.03;;;5.70;99.90;;;;;;5011902;28;20034;-74
2024/02/24 07:43:51;;;;;;;3.80;2.00;;;5.80;99.90;;;;;;5011372;28;20413;-74
2024/02/24 07:46:29;;;;;;;4.22;1.90;;;5.90;99.90;;;;;;5010762;28;20061;-79
2024/02/24 07:48:59;;;;;;;2.55;1.80;;;6.00;99.90;;;;;;5009150;28;20575;-79
2024/02/24 07:51:26;;;;;;;3.42;2.30;;;6.00;99.90;;;;;;5014182;28;20060;-77
2024/02/24 07:53:53;;;;;;;2.70;1.92;;;6.10;99.90;;;;;;5017839;28;20029;-77
2024/02/24 07:56:20;;;;;;;6.65;2.13;;;6.20;99.90;;;;;;5015269;28;20030;-78
2024/02/24 07:58:46;;;;;;;4.28;1.73;;;6.30;99.90;;;;;;5028109;28;20072;-78
2024/02/24 08:01:11;;;;;;;2.60;1.77;;;6.70;99.90;;;;;;5017407;28;20029;-79
2024/02/24 08:03:38;;;;;;;6.47;1.77;;;7.50;99.90;;;;;;5014159;28;20425;-80
2024/02/24 08:06:04;;;;;;;5.80;1.73;;;8.10;99.90;;;;;;5010995;28;20095;-80
2024/02/24 08:08:33;;;;;;;2.40;1.88;;;8.60;99.90;;;;;;5017905;28;20029;-79
2024/02/24 08:11:00;;;;;;;3.45;1.60;;;8.60;99.90;;;;;;5016503;28;20060;-79
2024/02/24 08:13:27;;;;;;;4.28;1.70;;;8.80;99.90;;;;;;5015401;28;20120;-79
2024/02/24 08:15:53;;;;;;;2.63;1.80;;;8.90;99.90;;;;;;5013744;28;20041;-79
2024/02/24 08:18:19;;;;;;;5.85;1.52;;;9.00;99.90;;;;;;5013330;28;20061;-78
2024/02/24 08:20:45;;;;;;;2.35;1.50;;;9.20;99.90;;;;;;4992471;28;20501;-77
2024/02/24 08:23:10;;;;;;;5.63;1.85;;;9.10;99.90;;;;;;5017750;28;20030;-78
2024/02/24 08:25:37;;;;;;;2.90;1.73;;;9.10;99.90;;;;;;5013656;28;20776;-78
2024/02/24 08:28:03;;;;;;;5.47;1.75;;;9.00;99.90;;;;;;5009342;28;20037;-77
2024/02/24 08:30:29;;;;;;;2.22;1.35;;;9.00;99.90;;;;;;5007947;28;20441;-72
2024/02/24 08:32:55;;;;;;;4.45;1.60;;;9.20;99.90;;;;;;5009761;28;20092;-75
2024/02/24 08:35:20;;;;;;;4.00;1.95;;;9.00;99.90;;;;;;5017943;28;20479;-73
2024/02/24 08:37:46;;;;;;;4.70;2.13;;;8.60;99.90;;;;;;5019360;28;20034;-73
2024/02/24 08:40:12;;;;;;;3.00;1.58;;;8.30;99.90;;;;;;5015676;28;20030;-74
2024/02/24 08:42:39;;;;;;;3.45;1.90;;;8.30;99.90;;;;;;5016423;28;20036;-73
2024/02/24 08:45:05;;;;;;;4.22;1.70;;;8.20;99.90;;;;;;5018436;28;20030;-72
2024/02/24 08:47:31;;;;;;;4.03;2.25;;;8.20;99.90;;;;;;5017633;28;20030;-74
2024/02/24 08:49:57;;;;;;;4.15;1.67;;;8.00;99.90;;;;;;5014918;28;20040;-74
2024/02/24 08:52:23;;;;;;;3.10;1.60;;;8.00;99.90;;;;;;5020940;28;20037;-75
2024/02/24 08:54:49;;;;;;;5.65;2.28;;;7.90;99.90;;;;;;5019245;28;20037;-74
2024/02/24 08:57:16;;;;;;;3.00;2.08;;;8.00;99.90;;;;;;5014868;28;20033;-74
2024/02/24 08:59:42;;;;;;;6.78;1.52;;;8.00;99.90;;;;;;5016584;28;20021;-75
2024/02/24 09:02:08;;;;;;;4.15;1.77;;;8.10;99.90;;;;;;5012319;28;20065;-74
2024/02/24 09:04:38;;;;;;;2.55;1.38;;;8.20;99.90;;;;;;5018468;28;20057;-74
2024/02/24 09:07:04;;;;;;;2.70;1.27;;;8.30;99.90;;;;;;5016429;28;20495;-74
2024/02/24 09:09:30;;;;;;;3.08;1.63;;;8.30;99.90;;;;;;5015449;28;20033;-73
2024/02/24 09:11:55;;;;;;;4.88;1.55;;;8.50;99.90;;;;;;5017080;28;20033;-74
2024/02/24 09:14:21;;;;;;;1.42;1.10;;;8.60;99.90;;;;;;5017144;28;20076;-72
2024/02/24 09:16:47;;;;;;;3.20;1.23;;;8.50;99.90;;;;;;5012642;28;20144;-72
2024/02/24 09:19:13;;;;;;;3.15;1.55;;;8.50;99.90;;;;;;5010603;28;20137;-73
2024/02/24 09:21:43;;;;;;;3.28;1.85;;;8.70;99.90;;;;;;5030897;28;20026;-73
2024/02/24 09:24:08;;;;;;;3.75;1.55;;;9.00;99.90;;;;;;5016222;28;20033;-71
2024/02/24 09:26:34;;;;;;;5.68;1.75;;;9.20;99.90;;;;;;5017567;28;20064;-72
2024/02/24 09:29:00;;;;;;;3.05;1.40;;;9.20;99.90;;;;;;5018874;28;20037;-73
2024/02/24 09:31:28;;;;;;;2.75;1.58;;;9.20;99.90;;;;;;5014460;28;20796;-73
2024/02/24 09:33:55;;;;;;;3.17;1.50;;;9.30;99.90;;;;;;5018786;28;20119;-73
2024/02/24 09:36:21;;;;;;;3.75;1.80;;;9.10;99.90;;;;;;5017566;28;20126;-73
2024/02/24 09:38:47;;;;;;;3.20;1.50;;;9.10;99.90;;;;;;5016525;28;20121;-73
2024/02/24 09:41:13;;;;;;;5.10;1.65;;;9.30;99.90;;;;;;5018617;28;20113;-73
2024/02/24 09:43:39;;;;;;;3.90;1.70;;;9.50;99.90;;;;;;5015767;28;20037;-71
2024/02/24 09:46:06;;;;;;;2.88;1.58;;;9.60;99.90;;;;;;5015455;28;20048;-77
2024/02/24 09:48:32;;;;;;;5.82;1.50;;;9.60;99.90;;;;;;5017364;28;20048;-77
2024/02/24 09:51:01;;;;;;;3.28;1.30;;;9.60;99.90;;;;;;5018158;28;20026;-76
2024/02/24 09:53:28;;;;;;;4.22;1.90;;;9.50;99.90;;;;;;5017619;28;20041;-77
2024/02/24 09:55:54;;;;;;;2.80;1.30;;;9.40;99.90;;;;;;5012316;28;20749;-77
2024/02/24 09:58:22;;;;;;;1.98;1.50;;;9.70;99.90;;;;;;5018392;28;20056;-78
2024/02/24 10:00:51;;;;;;;2.35;1.65;;;9.90;99.90;;;;;;5016618;28;20764;-77
2024/02/24 10:03:25;;;;;;;4.65;2.15;;;10.00;99.90;;;;;;5015620;28;20036;-78
2024/02/24 10:05:51;;;;;;;4.75;1.73;;;9.90;99.90;;;;;;5017640;28;20053;-77
2024/02/24 10:08:17;;;;;;;4.50;1.58;;;10.00;99.90;;;;;;5013152;28;20064;-77
2024/02/24 10:10:44;;;;;;;2.85;1.20;;;10.00;99.90;;;;;;5015605;28;20120;-78
2024/02/24 10:13:09;;;;;;;2.33;1.23;;;10.00;99.90;;;;;;5017788;28;20432;-78
2024/02/24 10:15:36;;;;;;;4.03;2.03;;;10.20;99.90;;;;;;5016852;28;20033;-75
2024/02/24 10:18:03;;;;;;;5.63;1.50;;;10.60;99.90;;;;;;5020520;28;20033;-75
2024/02/24 10:20:29;;;;;;;4.82;1.60;;;10.70;99.90;;;;;;5019782;28;20037;-75
2024/02/24 10:22:56;;;;;;;3.90;1.40;;;10.60;99.90;;;;;;5013119;28;20026;-75
2024/02/24 10:25:22;;;;;;;2.97;1.58;;;10.50;99.90;;;;;;5015086;28;20061;-76
2024/02/24 10:27:48;;;;;;;3.33;1.38;;;10.40;99.90;;;;;;5016010;28;20835;-77
2024/02/24 10:30:14;;;;;;;2.40;1.30;;;10.30;99.90;;;;;;5012437;28;20033;-76
2024/02/24 10:32:41;;;;;;;1.83;1.25;;;10.50;99.90;;;;;;5018600;28;20050;-71
2024/02/24 10:35:11;;;;;;;4.50;1.30;;;10.50;99.90;;;;;;5019426;28;20029;-76
2024/02/24 10:37:37;;;;;;;3.58;1.90;;;10.20;99.90;;;;;;5013909;28;20033;-78
2024/02/24 10:40:07;;;;;;;3.58;1.40;;;9.80;99.90;;;;;;5015778;28;20030;-78
2024/02/24 10:42:33;;;;;;;5.05;1.30;;;9.80;99.90;;;;;;5017872;28;20022;-77
2024/02/24 10:45:00;;;;;;;4.38;1.67;;;10.00;99.90;;;;;;5020775;28;20528;-77
2024/02/24 10:47:26;;;;;;;2.30;1.30;;;10.00;99.90;;;;;;5015236;28;20105;-77
2024/02/24 10:49:52;;;;;;;2.75;1.50;;;9.90;99.90;;;;;;5016976;28;20041;-77
2024/02/24 10:52:20;;;;;;;2.90;1.58;;;9.80;99.90;;;;;;5015868;28;20042;-77
2024/02/24 10:54:48;;;;;;;6.40;1.88;;;9.70;99.90;;;;;;5013311;28;20029;-77
2024/02/24 10:57:16;;;;;;;3.95;2.25;;;9.70;99.90;;;;;;5020384;28;20184;-77
2024/02/24 10:59:42;;;;;;;3.75;1.25;;;9.70;99.90;;;;;;5020952;28;20029;-77
2024/02/24 11:02:11;;;;;;;3.00;1.30;;;9.40;99.90;;;;;;5020443;28;20034;-78
2024/02/24 11:04:39;;;;;;;2.45;1.25;;;9.30;99.90;;;;;;5017978;28;20120;-78
2024/02/24 11:07:23;;;;;;;3.28;1.65;;;9.50;99.90;;;;;;5036690;28;20033;-78
2024/02/24 11:09:53;;;;;;;3.05;1.17;;;9.70;99.90;;;;;;5021956;28;20056;-77
2024/02/24 11:12:23;;;;;;;4.30;1.33;;;9.80;99.90;;;;;;5015237;28;20046;-76
2024/02/24 11:14:51;;;;;;;4.00;1.70;;;9.80;99.90;;;;;;5018605;28;20592;-77
2024/02/24 11:17:58;;;;;;;4.15;1.45;;;9.80;99.90;;;;;;5013896;28;20034;-76
2024/02/24 11:20:39;;;;;;;3.20;1.00;;;9.90;99.90;;;;;;5014536;28;20029;-76
2024/02/24 11:23:32;;;;;;;2.42;1.10;;;9.90;99.90;;;;;;5012679;28;20058;-76
2024/02/24 11:26:11;;;;;;;2.30;1.15;;;9.80;99.90;;;;;;5017169;28;20064;-76
2024/02/24 11:28:38;;;;;;;5.93;1.75;;;10.00;99.90;;;;;;5012386;28;20068;-77
2024/02/24 11:31:04;;;;;;;5.60;2.10;;;10.20;99.90;;;;;;5015296;28;20052;-77
2024/02/24 11:33:35;;;;;;;4.72;1.95;;;10.50;99.90;;;;;;5018798;28;20132;-70
2024/02/24 11:36:02;;;;;;;2.05;1.25;;;10.80;99.90;;;;;;5011883;28;20104;-79
2024/02/24 11:38:28;;;;;;;2.60;1.35;;;10.90;99.90;;;;;;5013132;28;20520;-77
2024/02/24 11:40:55;;;;;;;5.93;1.75;;;10.90;99.60;;;;;;5014690;28;20030;-77
2024/02/24 11:43:21;;;;;;;5.70;1.80;;;11.20;99.70;;;;;;5013346;28;20054;-80
2024/02/24 11:45:50;;;;;;;10.77;3.67;;;11.40;98.80;;;;;;5014018;28;20025;-80
2024/02/24 11:48:19;;;;;;;2.88;1.42;;;11.50;98.00;;;;;;5012904;28;20053;-80
2024/02/24 11:50:45;;;;;;;2.20;1.30;;;11.70;98.20;;;;;;5013778;28;20052;-80
2024/02/24 11:53:14;;;;;;;3.13;1.67;;;11.60;98.90;;;;;;5015624;28;20107;-80
2024/02/24 11:55:45;;;;;;;3.92;1.50;;;11.80;98.30;;;;;;5014714;28;20032;-79
2024/02/24 11:58:12;;;;;;;6.22;1.23;;;11.90;98.40;;;;;;5016133;28;20048;-79
2024/02/24 12:00:40;;;;;;;9.90;2.22;;;12.00;97.80;;;;;;5020856;28;20048;-78
2024/02/24 12:03:11;;;;;;;43.42;5.32;;;11.70;97.80;;;;;;5017270;28;20029;-78
2024/02/24 12:05:37;;;;;;;2.17;1.30;;;12.00;97.80;;;;;;5012944;28;20142;-79
2024/02/24 12:08:06;;;;;;;2.40;1.10;;;12.30;96.70;;;;;;5016015;28;20049;-77
2024/02/24 12:10:36;;;;;;;7.13;1.40;;;12.40;96.50;;;;;;5012623;28;20137;-79
2024/02/24 12:13:08;;;;;;;18.80;3.70;;;12.30;95.30;;;;;;5014346;28;20041;-79
2024/02/24 12:15:35;;;;;;;5.82;1.52;;;12.10;95.40;;;;;;5015083;28;20121;-77
2024/02/24 12:18:04;;;;;;;3.17;1.02;;;12.00;96.70;;;;;;5014049;28;20430;-78
2024/02/24 12:20:30;;;;;;;2.60;0.90;;;11.80;97.40;;;;;;5015233;28;20125;-78
2024/02/24 12:23:03;;;;;;;4.78;1.30;;;11.90;97.70;;;;;;5015409;28;20026;-79
2024/02/24 12:25:29;;;;;;;1.77;0.93;;;11.80;97.40;;;;;;5013951;28;20030;-72
2024/02/24 12:27:57;;;;;;;20.38;2.58;;;11.80;95.90;;;;;;5003299;28;20045;-72
2024/02/24 12:30:24;;;;;;;4.13;1.63;;;11.80;96.40;;;;;;5012186;28;20107;-72
2024/02/24 12:32:50;;;;;;;3.28;1.10;;;11.80;96.50;;;;;;5009352;28;20031;-72
2024/02/24 12:35:16;;;;;;;7.57;1.50;;;11.70;97.20;;;;;;5008417;28;20037;-73
2024/02/24 12:37:43;;;;;;;3.65;1.13;;;11.80;97.00;;;;;;5016811;28;20033;-72
2024/02/24 12:40:30;;;;;;;2.50;0.93;;;12.10;96.90;;;;;;5011093;28;20033;-73
2024/02/24 12:42:57;;;;;;;1.02;0.70;;;11.60;96.10;;;;;;5011313;28;20747;-73
2024/02/24 12:45:23;;;;;;;0.70;0.70;;;11.30;97.10;;;;;;5016233;28;20046;-74
2024/02/24 12:47:50;;;;;;;1.33;0.90;;;11.30;97.50;;;;;;5017985;28;20029;-74
2024/02/24 12:50:20;;;;;;;1.48;0.95;;;11.40;97.30;;;;;;5009022;28;20124;-72
2024/02/24 12:52:47;;;;;;;2.88;0.90;;;11.30;98.00;;;;;;5010037;28;20037;-72